ARFOR WordPress Shortcode Example

and like us on FB

This page is used to demonstrate the ARFOR feature of the Metar WordPress plugin.

BANKSTOWN YSBK

TAF YSBK 191107Z 1912/1924
25005KT 9999 SCT030
RMK
T 12 10 08 09 Q 1020 1020 1020 1021

METAR YSBK 191330Z AUTO 00000KT 9999 // NCD 11/02 Q1020
RMK RF00.0/000.0

BATHURST YBTH

TAF YBTH 191304Z 1914/2002
VRB03KT CAVOK
FM200000 26005KT CAVOK
RMK
T 04 01 M01 08 Q 1021 1020 1021 1022

METAR YBTH 191330Z AUTO 19006KT 9999 // NCD 05/M01 Q1021 RMK
RF00.0/000.0

CAMDEN YSCN

TAF YSCN 191109Z 1912/1924
VRB03KT 9999 SCT030
RMK
T 11 08 06 06 Q 1020 1021 1020 1021

METAR YSCN 191330Z AUTO 17006KT 9999 // NCD 09/01 Q1020 RMK
RF00.0/000.0

* CANBERRA YSCB

TAF YSCB 191128Z 1912/2012
30006KT 9999 FEW035
FM191400 VRB03KT 9999 FEW020
FM192300 30010KT CAVOK
FM200600 32012KT CAVOK
FM201000 32005KT CAVOK
PROB30 1916/1921 2000 BR FEW002
RMK
T 04 01 00 01 Q 1020 1020 1020 1021

METAR YSCB 191330Z AUTO 00000KT 9999 // NCD M00/M03 Q1020
RMK RF00.0/000.0

COOMA YCOM

TAF YCOM 191303Z 1914/2002
25005KT 9999 SCT010
FM192100 30006KT CAVOK
PROB30 1916/1921 2000 BR SCT002
RMK
T 00 M01 M03 06 Q 1019 1019 1019 1020

METAR YCOM 191330Z AUTO 25007KT 9999 // NCD 00/M01 Q1019 RMK
RF00.0/000.0

COOTAMUNDRA YCTM

Nil current TAF.

METAR/SPECI observations are not generated for this location.

COWRA YCWR

Nil current TAF.

METAR YCWR 191330Z AUTO 00000KT //// // ////// 05/01 Q1022
RMK RF00.0/000.0

FORBES YFBS

Nil current TAF.

METAR YFBS 191330Z AUTO 19004KT //// // ////// 03/M00 Q1022 RMK
RF00.0/000.0

GOULBURN YGLB

TAF AMD YGLB 182110Z 1821/1908
29022G32KT 9999 SCT030
FM190100 26025G35KT 9999 SCT030 SCT050
BECMG 1907/1908 26012KT 9999 SCT030
RMK FM182100 MOD/SEV TURB BLW 5000FT TILL182200
FM182200 MOD TURB BLW 5000FT TILL190200
T 10 11 12 12 Q 1015 1016 1016 1017

METAR YGLB 191330Z AUTO 34003KT 9999 // NCD 01/M01 Q1020 RMK
RF00.0/000.0 PRESENT WEATHER SENSOR US

HOLSWORTHY YSHW

TAF YSHW 191108Z 1912/1924
23007KT 9999 SCT030
RMK
T 12 09 08 08 Q 1020 1020 1020 1021

METAR YSHW 191330Z AUTO 22005KT 9999 // NCD 11/01 Q1020 RMK
RF00.0/000.0

LORD HOWE ISLAND YLHI

TAF AMD YLHI 191037Z 1911/2012
32013KT 9999 -SHRA SCT010 BKN022
FM191300 27013KT 9999 -SHRA BKN020 OVC050
BECMG 1916/1918 18015G25KT 9999 -SHRA SCT020 BKN035
FM192000 21015G25KT 9999 SCT020 SCT040
INTER 1913/1920 4000 SHRA BKN010
RMK FM191100 MOD TURB BLW 5000FT TILL200600
T 18 17 17 17 Q 1016 1015 1015 1017

METAR YLHI 191330Z AUTO 28009KT 9999 // SCT052 19/// Q1016
RMK RF00.0/000.0

MALLACOOTA YMCO

Nil current TAF.

METAR YMCO 191330Z AUTO 25009KT //// // ////// 10/04 Q1019
RMK RF00.0/000.0

MERIMBULA YMER

TAF YMER 191302Z 1914/2002
25007KT 9999 SCT040
RMK FM191400 MOD TURB BLW 5000FT TILL192000
T 08 06 05 13 Q 1020 1020 1021 1021

METAR YMER 191330Z AUTO 29004KT 260V320 9999 // NCD 10/03 Q1020 RMK
RF00.0/000.0

MORUYA YMRY

TAF YMRY 191301Z 1914/2002
VRB03KT CAVOK
RMK
T 07 05 04 14 Q 1020 1020 1020 1021

SPECI YMRY 191330Z AUTO 24005KT 8000 // SCT033 BKN064 10/07 Q1020
RMK RF00.0/000.0

NORFOLK ISLAND YSNF

TAF YSNF 191122Z 1912/2012
24010KT 9999 -SHRA BKN030
FM200000 30013KT 9999 SCT020 BKN040
RMK
T 15 15 15 17 Q 1019 1018 1017 1019

METAR YSNF 191330Z AUTO 26007KT 9999 // OVC035 15/09 Q1018
RMK RF00.0/000.0

* NOWRA YSNW

YSNW TAF YSNW 191111Z 1912/1924
23008KT 9999 -SHRA BKN030
FM191800 26008KT 9999 SCT030
RMK
T 10 09 09 09 Q 1019 1020 1020 1021

METAR YSNW 191330Z AUTO 22004KT 9999 // SCT054 OVC069 09/01 Q1020
RMK RF00.0/000.0

ORANGE YORG

TAF YORG 191304Z 1914/2002
20005KT CAVOK
FM200000 24008KT CAVOK
RMK
T 02 01 00 09 Q 1021 1020 1020 1021

METAR YORG 191330Z AUTO 20005KT 9999 // NCD 03/M01 Q1020 RMK
RF00.0/000.0

PARKES YPKS

TAF YPKS 190051Z 1902/1914
22015G25KT 9999 SCT035
FM190800 20007KT 9999 SCT030
RMK
T 15 17 12 05 Q 1020 1019 1021 1022

METAR YPKS 191330Z AUTO 00000KT 9999 // NCD 01/M01 Q1021 RMK
RF00.0/000.0

RICHMOND (NSW) YSRI

TAF YSRI 191117Z 1912/2012
21007KT CAVOK
FM191400 VRB03KT 9999 SCT020
FM200100 09010KT 9999 FEW040
FM200900 VRB05KT 9999 SCT010
RMK
T 11 08 06 07 Q 1020 1020 1020 1021

METAR YSRI 191330Z AUTO 00000KT 9999 // NCD 09/02 Q1020 RMK
RF00.0/000.0 PRESENT WEATHER SENSOR US

* SYDNEY YSSY

TAF YSSY 191107Z 1912/2018
25012KT 9999 SCT030
FM191800 29008KT 9999 SCT030
FM200100 06010KT 9999 FEW035
FM201200 29008KT 9999 FEW025
RMK
T 15 13 11 12 Q 1020 1020 1020 1021

TTF METAR YSSY 191300Z 21010KT CAVOK 14/03 Q1020
RMK RF00.0/000.0
NOSIG

TEMORA YTEM

Nil current TAF.

METAR YTEM 191330Z AUTO 19004KT //// // ////// 02/M00 Q1022 RMK
RF00.0/000.0

WAGGA WAGGA YSWG

TAF YSWG 191102Z 1912/1924
22004KT CAVOK
RMK
T 06 05 02 04 Q 1022 1021 1021 1022

METAR YSWG 191330Z AUTO 00000KT 9999 // NCD 03/01 Q1021 RMK
RF00.0/000.0

WOLLONGONG YWOL

TAF YWOL 191301Z 1914/2002
30006KT 9999 SCT025
FM200000 15005KT CAVOK
RMK
T 11 09 08 15 Q 1020 1020 1021 1021

METAR YWOL 191330Z AUTO 17001KT 9999 // NCD 08/02 Q1020 RMK
RF00.0/000.0

YOUNG YYNG

TAF YYNG 190053Z 1902/1914
24014KT 9999 SCT025
FM190800 20005KT 9999 SCT030
RMK
T 13 14 10 03 Q 1019 1018 1020 1022

METAR YYNG 191330Z AUTO 15002KT //// // ////// M01/M01 Q1021 RMK
RF00.0/000.0

* Note: The latest TTF automatically supersedes the TAF for the 3 hr validity of the TTF, unless otherwise specified in the TTF.